Time;durP1;ratioP1;P1;durP2;ratioP2;P2;SDS_P1;SDS_P2;PMS_P1;PMS_P2;Temp;Humidity;BMP_temperature;BMP_pressure;BME280_temperature;BME280_humidity;BME280_pressure;Samples;Min_cycle;Max_cycle;Signal;HPM_P1;HPM_P2
2023/07/29 00:00:12;;;;;;;;;;;19.30;99.90;;;;;;4991684;28;20015;-43
2023/07/29 00:02:39;;;;;;;;;;;19.30;99.90;;;;;;4992785;28;19921;-43
2023/07/29 00:05:07;;;;;;;;;;;19.30;99.90;;;;;;4974947;28;19921;-43
2023/07/29 00:07:34;;;;;;;;;;;19.30;99.90;;;;;;4991067;28;19991;-43
2023/07/29 00:10:01;;;;;;;;;;;19.30;99.90;;;;;;4978585;28;19989;-43
2023/07/29 00:12:27;;;;;;;;;;;19.30;99.90;;;;;;4996134;28;19921;-44
2023/07/29 00:14:54;;;;;;;;;;;19.20;99.90;;;;;;4996874;28;19928;-43
2023/07/29 00:17:21;;;;;;;;;;;19.10;99.90;;;;;;4978368;28;19973;-43
2023/07/29 00:19:47;;;;;;;;;;;19.20;99.90;;;;;;4995094;28;19926;-43
2023/07/29 00:22:15;;;;;;;;;;;19.10;99.90;;;;;;4995819;28;19928;-43
2023/07/29 00:24:42;;;;;;;;;;;19.10;99.90;;;;;;4995273;28;20362;-43
2023/07/29 00:27:09;;;;;;;;;;;19.00;99.90;;;;;;4979618;28;19925;-44
2023/07/29 00:29:35;;;;;;;;;;;19.00;99.90;;;;;;4995744;28;19976;-44
2023/07/29 00:32:02;;;;;;;;;;;19.00;99.90;;;;;;4995268;28;19928;-43
2023/07/29 00:34:30;;;;;;;;;;;18.90;99.90;;;;;;4977921;28;19930;-42
2023/07/29 00:36:57;;;;;;;;;;;18.90;99.90;;;;;;4995126;28;19926;-43
2023/07/29 00:39:25;;;;;;;;;;;18.90;99.90;;;;;;4979115;28;20568;-43
2023/07/29 00:41:52;;;;;;;;;;;18.80;99.90;;;;;;4978530;28;19922;-44
2023/07/29 00:44:19;;;;;;;;;;;18.80;99.90;;;;;;4994725;28;19925;-43
2023/07/29 00:46:45;;;;;;;;;;;18.80;99.90;;;;;;4976799;28;19961;-44
2023/07/29 00:49:12;;;;;;;;;;;18.70;99.90;;;;;;4994282;28;19971;-44
2023/07/29 00:51:39;;;;;;;;;;;18.70;99.90;;;;;;4996105;28;19968;-43
2023/07/29 00:54:05;;;;;;;;;;;18.70;99.90;;;;;;4994804;28;19933;-43
2023/07/29 00:56:33;;;;;;;;;;;18.70;99.90;;;;;;4994858;28;20379;-43
2023/07/29 00:59:01;;;;;;;;;;;18.70;99.90;;;;;;4994671;28;19922;-43
2023/07/29 01:01:28;;;;;;;;;;;18.60;99.90;;;;;;4994483;28;19980;-43
2023/07/29 01:03:55;;;;;;;;;;;18.60;99.90;;;;;;4978714;28;19960;-44
2023/07/29 01:06:23;;;;;;;;;;;18.60;99.90;;;;;;4994306;28;19969;-42
2023/07/29 01:08:52;;;;;;;;;;;18.50;99.90;;;;;;4995764;28;19976;-43
2023/07/29 01:11:22;;;;;;;;;;;18.50;99.90;;;;;;4994384;28;19921;-43
2023/07/29 01:13:52;;;;;;;;;;;18.50;99.90;;;;;;4978386;28;19921;-42
2023/07/29 01:16:20;;;;;;;;;;;18.40;99.90;;;;;;4995029;28;19928;-43
2023/07/29 01:18:47;;;;;;;;;;;18.40;99.90;;;;;;4994884;28;19922;-43
2023/07/29 01:21:14;;;;;;;;;;;18.40;99.90;;;;;;4976660;28;19933;-44
2023/07/29 01:23:42;;;;;;;;;;;18.40;99.90;;;;;;4995690;28;19930;-43
2023/07/29 01:26:09;;;;;;;;;;;18.40;99.90;;;;;;4995375;28;19922;-43
2023/07/29 01:28:35;;;;;;;;;;;18.40;99.90;;;;;;4976432;28;19965;-43
2023/07/29 01:31:03;;;;;;;;;;;18.30;99.90;;;;;;4995368;28;19922;-43
2023/07/29 01:33:31;;;;;;;;;;;18.30;99.90;;;;;;4993580;28;19922;-43
2023/07/29 01:35:58;;;;;;;;;;;18.30;99.90;;;;;;4993854;28;19956;-43
2023/07/29 01:38:25;;;;;;;;;;;18.30;99.90;;;;;;4994529;28;19925;-44
2023/07/29 01:40:53;;;;;;;;;;;18.30;99.90;;;;;;4976917;28;19961;-43
2023/07/29 01:43:23;;;;;;;;;;;18.20;99.90;;;;;;4993938;28;19984;-43
2023/07/29 01:45:50;;;;;;;;;;;18.20;99.90;;;;;;4993880;28;19956;-43
2023/07/29 01:48:17;;;;;;;;;;;18.20;99.90;;;;;;4994006;28;19960;-43
2023/07/29 01:50:44;;;;;;;;;;;18.20;99.90;;;;;;4993624;28;19963;-43
2023/07/29 01:53:10;;;;;;;;;;;18.10;99.90;;;;;;4976443;28;20333;-43
2023/07/29 01:55:37;;;;;;;;;;;18.10;99.90;;;;;;4977749;28;19922;-43
2023/07/29 01:58:05;;;;;;;;;;;18.10;99.90;;;;;;4994568;28;20000;-43
2023/07/29 02:00:32;;;;;;;;;;;18.10;99.90;;;;;;4993297;28;19963;-43
2023/07/29 02:02:58;;;;;;;;;;;18.10;99.90;;;;;;4993678;28;20262;-43
2023/07/29 02:05:25;;;;;;;;;;;18.10;99.90;;;;;;4993313;28;19925;-42
2023/07/29 02:07:52;;;;;;;;;;;18.20;99.90;;;;;;4976986;28;20424;-43
2023/07/29 02:10:19;;;;;;;;;;;18.10;99.90;;;;;;4977212;28;19990;-43
2023/07/29 02:12:45;;;;;;;;;;;18.10;99.90;;;;;;4993606;28;19940;-43
2023/07/29 02:15:13;;;;;;;;;;;18.10;99.90;;;;;;4993182;28;20282;-43
2023/07/29 02:17:43;;;;;;;;;;;18.10;99.90;;;;;;4993132;28;19925;-43
2023/07/29 02:20:10;;;;;;;;;;;18.10;99.90;;;;;;4975362;28;20389;-44
2023/07/29 02:22:37;;;;;;;;;;;18.10;99.90;;;;;;4977534;28;19925;-43
2023/07/29 02:25:04;;;;;;;;;;;18.10;99.90;;;;;;4990798;28;19929;-43
2023/07/29 02:27:31;;;;;;;;;;;18.00;99.90;;;;;;4991091;28;19976;-43
2023/07/29 02:29:57;;;;;;;;;;;18.00;99.90;;;;;;4992745;28;20054;-43
2023/07/29 02:32:25;;;;;;;;;;;18.00;99.90;;;;;;4993173;28;20032;-43
2023/07/29 02:34:52;;;;;;;;;;;18.00;99.90;;;;;;4976500;28;19926;-43
2023/07/29 02:37:19;;;;;;;;;;;18.00;99.90;;;;;;4992938;28;20326;-42
2023/07/29 02:39:46;;;;;;;;;;;18.00;99.90;;;;;;4992905;28;20029;-43
2023/07/29 02:42:13;;;;;;;;;;;18.00;99.90;;;;;;4993252;28;19928;-43
2023/07/29 02:44:40;;;;;;;;;;;17.90;99.90;;;;;;4975189;28;19930;-43
2023/07/29 02:47:06;;;;;;;;;;;18.00;99.90;;;;;;4993716;28;19993;-43
2023/07/29 02:49:34;;;;;;;;;;;18.00;99.90;;;;;;4992543;28;19958;-43
2023/07/29 02:52:01;;;;;;;;;;;17.90;99.90;;;;;;4992733;28;19945;-43
2023/07/29 02:54:28;;;;;;;;;;;18.00;99.90;;;;;;4992418;28;19929;-43
2023/07/29 02:56:54;;;;;;;;;;;17.90;99.90;;;;;;4975501;28;19941;-42
2023/07/29 02:59:21;;;;;;;;;;;17.90;99.90;;;;;;4993416;28;19966;-43
2023/07/29 03:01:48;;;;;;;;;;;17.90;99.90;;;;;;4992391;28;19953;-43
2023/07/29 03:04:15;;;;;;;;;;;17.90;99.90;;;;;;4975351;28;20402;-43
2023/07/29 03:06:43;;;;;;;;;;;17.90;99.90;;;;;;4992381;28;19936;-43
2023/07/29 03:09:09;;;;;;;;;;;17.90;99.90;;;;;;4992639;28;20386;-42
2023/07/29 03:11:36;;;;;;;;;;;17.90;99.90;;;;;;4993153;28;19925;-43
2023/07/29 03:14:03;;;;;;;;;;;17.90;99.90;;;;;;4972848;28;19961;-43
2023/07/29 03:16:29;;;;;;;;;;;17.90;99.90;;;;;;4987004;28;19925;-42
2023/07/29 03:18:57;;;;;;;;;;;17.80;99.90;;;;;;4972934;28;19964;-43
2023/07/29 03:21:24;;;;;;;;;;;17.80;99.90;;;;;;4974098;28;20333;-43
2023/07/29 03:23:52;;;;;;;;;;;17.80;99.90;;;;;;4973943;28;19926;-43
2023/07/29 03:26:18;;;;;;;;;;;17.70;99.90;;;;;;4986129;28;19922;-43
2023/07/29 03:28:45;;;;;;;;;;;17.80;99.90;;;;;;4993217;28;19922;-43
2023/07/29 03:31:12;;;;;;;;;;;17.70;99.90;;;;;;4993157;28;20340;-43
2023/07/29 03:33:38;;;;;;;;;;;17.70;99.90;;;;;;4975945;28;19962;-43
2023/07/29 03:36:05;;;;;;;;;;;17.70;99.90;;;;;;4974296;28;19922;-43
2023/07/29 03:38:35;;;;;;;;;;;17.60;99.90;;;;;;4956882;28;20281;-43
2023/07/29 03:41:03;;;;;;;;;;;17.60;99.90;;;;;;4973563;28;20298;-43
2023/07/29 03:43:29;;;;;;;;;;;17.60;99.90;;;;;;4972122;28;20048;-42
2023/07/29 03:45:56;;;;;;;;;;;17.60;99.90;;;;;;4989433;28;19995;-43
2023/07/29 03:48:23;;;;;;;;;;;17.50;99.90;;;;;;4992961;28;20007;-43
2023/07/29 03:50:49;;;;;;;;;;;17.50;99.90;;;;;;4993229;28;19987;-43
2023/07/29 03:53:16;;;;;;;;;;;17.50;99.90;;;;;;4992849;28;19921;-43
2023/07/29 03:55:43;;;;;;;;;;;17.50;99.90;;;;;;4992273;28;19969;-43
2023/07/29 03:58:11;;;;;;;;;;;17.50;99.90;;;;;;4992623;28;20444;-43
2023/07/29 04:00:38;;;;;;;;;;;17.50;99.90;;;;;;4992940;28;19999;-43
2023/07/29 04:03:05;;;;;;;;;;;17.40;99.90;;;;;;4992750;28;20362;-43
2023/07/29 04:05:31;;;;;;;;;;;17.40;99.90;;;;;;4992451;28;19922;-43
2023/07/29 04:07:58;;;;;;;;;;;17.40;99.90;;;;;;4993133;28;19998;-42
2023/07/29 04:10:25;;;;;;;;;;;17.40;99.90;;;;;;4992122;28;19922;-43
2023/07/29 04:12:51;;;;;;;;;;;17.40;99.90;;;;;;4992807;28;20334;-42
2023/07/29 04:15:20;;;;;;;;;;;17.40;99.90;;;;;;4992669;28;19965;-43
2023/07/29 04:17:46;;;;;;;;;;;17.40;99.90;;;;;;4991545;28;19956;-43
2023/07/29 04:20:13;;;;;;;;;;;17.30;99.90;;;;;;4975687;28;20024;-43
2023/07/29 04:22:40;;;;;;;;;;;17.30;99.90;;;;;;4993016;28;19926;-42
2023/07/29 04:25:07;;;;;;;;;;;17.30;99.90;;;;;;4975272;28;19960;-43
2023/07/29 04:27:34;;;;;;;;;;;17.30;99.90;;;;;;4975386;28;19925;-43
2023/07/29 04:30:00;;;;;;;;;;;17.40;99.90;;;;;;4990940;28;20431;-42
2023/07/29 04:32:28;;;;;;;;;;;17.40;99.90;;;;;;4975687;28;19921;-42
2023/07/29 04:34:55;;;;;;;;;;;17.40;99.90;;;;;;4991394;28;19956;-43
2023/07/29 04:37:22;;;;;;;;;;;17.40;99.90;;;;;;4992811;28;19936;-43
2023/07/29 04:39:48;;;;;;;;;;;17.40;99.90;;;;;;4992300;28;20392;-43
2023/07/29 04:42:15;;;;;;;;;;;17.40;99.90;;;;;;4991661;28;19960;-43
2023/07/29 04:44:43;;;;;;;;;;;17.40;99.90;;;;;;4992260;28;19944;-43
2023/07/29 04:47:09;;;;;;;;;;;17.40;99.90;;;;;;4974205;28;20365;-43
2023/07/29 04:49:37;;;;;;;;;;;17.40;99.90;;;;;;4990896;28;19973;-43
2023/07/29 04:52:04;;;;;;;;;;;17.40;99.90;;;;;;4991130;28;20012;-42
2023/07/29 04:54:31;;;;;;;;;;;17.40;99.90;;;;;;4991820;28;19922;-43
2023/07/29 04:56:58;;;;;;;;;;;17.30;99.90;;;;;;4995706;28;20366;-43
2023/07/29 04:59:24;;;;;;;;;;;17.40;99.90;;;;;;4995064;28;20348;-43
2023/07/29 05:01:51;;;;;;;;;;;17.40;99.90;;;;;;4996051;28;19922;-42
2023/07/29 05:04:18;;;;;;;;;;;17.40;99.90;;;;;;4994070;28;20388;-43
2023/07/29 05:06:46;;;;;;;;;;;17.40;99.90;;;;;;4966247;28;20187;-43
2023/07/29 05:09:13;;;;;;;;;;;17.40;99.90;;;;;;4983542;28;19929;-44
2023/07/29 05:11:40;;;;;;;;;;;17.40;99.90;;;;;;4994430;28;19930;-42
2023/07/29 05:14:07;;;;;;;;;;;17.40;99.90;;;;;;4995582;28;19976;-43
2023/07/29 05:16:33;;;;;;;;;;;17.40;99.90;;;;;;4994298;28;19932;-42
2023/07/29 05:19:00;;;;;;;;;;;17.40;99.90;;;;;;4977317;28;20420;-42
2023/07/29 05:21:27;;;;;;;;;;;17.40;99.90;;;;;;4978327;28;20013;-43
2023/07/29 05:23:55;;;;;;;;;;;17.40;99.90;;;;;;4977167;28;19925;-43
2023/07/29 05:26:21;;;;;;;;;;;17.50;99.90;;;;;;4977424;28;19986;-42
2023/07/29 05:28:48;;;;;;;;;;;17.50;99.90;;;;;;4976653;28;19922;-43
2023/07/29 05:31:15;;;;;;;;;;;17.50;99.90;;;;;;4993970;28;19921;-43
2023/07/29 05:33:41;;;;;;;;;;;17.50;99.90;;;;;;4995597;28;19961;-43
2023/07/29 05:36:08;;;;;;;;;;;17.60;99.90;;;;;;4994365;28;20371;-43
2023/07/29 05:38:35;;;;;;;;;;;17.60;99.90;;;;;;4995406;28;19926;-43
2023/07/29 05:41:03;;;;;;;;;;;17.60;99.90;;;;;;4984439;28;19960;-43
2023/07/29 05:43:30;;;;;;;;;;;17.60;99.90;;;;;;4987550;28;19925;-43
2023/07/29 05:45:56;;;;;;;;;;;17.60;99.90;;;;;;4993423;28;19956;-43
2023/07/29 05:48:23;;;;;;;;;;;17.60;99.90;;;;;;4993823;28;20266;-43
2023/07/29 05:50:50;;;;;;;;;;;17.60;99.90;;;;;;4994007;28;19921;-43
2023/07/29 05:53:16;;;;;;;;;;;17.60;99.90;;;;;;4977730;28;19922;-42
2023/07/29 05:55:43;;;;;;;;;;;17.60;99.90;;;;;;4976035;28;19922;-43
2023/07/29 05:58:11;;;;;;;;;;;17.70;99.90;;;;;;4993507;28;20428;-42
2023/07/29 06:00:38;;;;;;;;;;;17.70;99.90;;;;;;4977505;28;19969;-43
2023/07/29 06:03:04;;;;;;;;;;;17.70;99.90;;;;;;4976527;28;19922;-43
2023/07/29 06:05:31;;;;;;;;;;;17.80;99.90;;;;;;4992863;28;20400;-44
2023/07/29 06:07:58;;;;;;;;;;;17.80;99.90;;;;;;4993140;28;20393;-42
2023/07/29 06:10:24;;;;;;;;;;;17.80;99.90;;;;;;4994729;28;19959;-43
2023/07/29 06:12:51;;;;;;;;;;;17.80;99.90;;;;;;4992980;28;19955;-43
2023/07/29 06:15:22;;;;;;;;;;;17.80;99.90;;;;;;4994564;28;19932;-43
2023/07/29 06:17:49;;;;;;;;;;;17.90;99.90;;;;;;4977125;28;20012;-42
2023/07/29 06:20:15;;;;;;;;;;;17.90;99.90;;;;;;4993222;28;20035;-43
2023/07/29 06:22:42;;;;;;;;;;;17.90;99.90;;;;;;4976972;28;19925;-44
2023/07/29 06:25:09;;;;;;;;;;;18.00;99.90;;;;;;4977197;28;19922;-43
2023/07/29 06:27:35;;;;;;;;;;;18.10;99.90;;;;;;4994337;28;20225;-44
2023/07/29 06:30:02;;;;;;;;;;;18.10;99.90;;;;;;4993421;28;19980;-44
2023/07/29 06:32:30;;;;;;;;;;;18.30;99.90;;;;;;4991472;28;19936;-43
2023/07/29 06:34:57;;;;;;;;;;;18.30;99.90;;;;;;4971871;28;19929;-43
2023/07/29 06:37:24;;;;;;;;;;;18.40;99.90;;;;;;4991794;28;20333;-43
2023/07/29 06:39:50;;;;;;;;;;;18.40;99.90;;;;;;4992624;28;19925;-43
2023/07/29 06:42:17;;;;;;;;;;;18.50;99.90;;;;;;4974779;28;19922;-43
2023/07/29 06:44:45;;;;;;;;;;;18.50;99.90;;;;;;4992319;28;19925;-44
2023/07/29 06:47:12;;;;;;;;;;;18.50;99.90;;;;;;4976725;28;20438;-43
2023/07/29 06:49:40;;;;;;;;;;;18.60;99.90;;;;;;4994093;28;19922;-43
2023/07/29 06:52:07;;;;;;;;;;;18.70;99.90;;;;;;4976147;28;20354;-44
2023/07/29 06:54:33;;;;;;;;;;;18.80;99.90;;;;;;4976700;28;20282;-43
2023/07/29 06:57:00;;;;;;;;;;;18.90;99.90;;;;;;4993780;28;19925;-43
2023/07/29 06:59:27;;;;;;;;;;;18.90;99.90;;;;;;4993098;28;19921;-43
2023/07/29 07:01:54;;;;;;;;;;;19.00;99.90;;;;;;4993246;28;19926;-43
2023/07/29 07:04:20;;;;;;;;;;;19.10;99.90;;;;;;4976504;28;19922;-43
2023/07/29 07:06:48;;;;;;;;;;;19.10;99.90;;;;;;4993504;28;20025;-44
2023/07/29 07:09:15;;;;;;;;;;;19.30;99.90;;;;;;4976285;28;19921;-43
2023/07/29 07:11:42;;;;;;;;;;;19.30;99.90;;;;;;4993446;28;19964;-43
2023/07/29 07:14:08;;;;;;;;;;;19.40;99.90;;;;;;4992844;28;19922;-44
2023/07/29 07:16:36;;;;;;;;;;;19.40;99.90;;;;;;4993616;28;19972;-43
2023/07/29 07:19:03;;;;;;;;;;;19.50;99.90;;;;;;4992712;28;20352;-44
2023/07/29 07:21:30;;;;;;;;;;;19.50;99.90;;;;;;4993303;28;19967;-43
2023/07/29 07:23:58;;;;;;;;;;;19.50;99.90;;;;;;4992883;28;19929;-44
2023/07/29 07:26:24;;;;;;;;;;;19.50;99.90;;;;;;4976201;28;19926;-43
2023/07/29 07:28:51;;;;;;;;;;;19.50;99.90;;;;;;4976336;28;19967;-44
2023/07/29 07:31:18;;;;;;;;;;;19.60;99.90;;;;;;4993134;28;19956;-43
2023/07/29 07:33:45;;;;;;;;;;;19.60;99.90;;;;;;4993342;28;19929;-44
2023/07/29 07:36:12;;;;;;;;;;;19.60;99.90;;;;;;4975156;28;19929;-44
2023/07/29 07:38:38;;;;;;;;;;;19.60;99.90;;;;;;4993207;28;19937;-44
2023/07/29 07:41:06;;;;;;;;;;;19.70;99.90;;;;;;4993081;28;19929;-43
2023/07/29 07:43:33;;;;;;;;;;;19.80;99.90;;;;;;4991765;28;19952;-44
2023/07/29 07:46:00;;;;;;;;;;;19.90;99.90;;;;;;4980195;28;20381;-43
2023/07/29 07:48:27;;;;;;;;;;;20.00;99.90;;;;;;4973734;28;19922;-43
2023/07/29 07:50:53;;;;;;;;;;;20.00;99.90;;;;;;4956490;28;20408;-43
2023/07/29 07:53:20;;;;;;;;;;;20.00;99.90;;;;;;4972898;28;20393;-43
2023/07/29 07:55:47;;;;;;;;;;;20.10;99.90;;;;;;4956244;28;19921;-43
2023/07/29 07:58:15;;;;;;;;;;;20.10;99.90;;;;;;4973380;28;19926;-43
2023/07/29 08:00:42;;;;;;;;;;;20.20;99.90;;;;;;4971952;28;20294;-43
2023/07/29 08:03:09;;;;;;;;;;;20.20;99.90;;;;;;4973538;28;20356;-43
2023/07/29 08:05:36;;;;;;;;;;;20.30;99.90;;;;;;4954437;28;19977;-44
2023/07/29 08:08:02;;;;;;;;;;;20.40;99.90;;;;;;4951838;28;19962;-44
2023/07/29 08:10:29;;;;;;;;;;;20.50;99.90;;;;;;4951387;29;20873;-43
2023/07/29 08:12:56;;;;;;;;;;;20.50;99.90;;;;;;4946690;29;19977;-43
2023/07/29 08:15:24;;;;;;;;;;;20.60;99.90;;;;;;4970790;28;20347;-44
2023/07/29 08:17:51;;;;;;;;;;;20.70;99.90;;;;;;4971624;28;19922;-44
2023/07/29 08:20:17;;;;;;;;;;;20.60;99.90;;;;;;4970433;28;19930;-43
2023/07/29 08:22:44;;;;;;;;;;;20.70;99.90;;;;;;4947465;28;19933;-43
2023/07/29 08:25:11;;;;;;;;;;;20.90;99.90;;;;;;4971977;28;20333;-43
2023/07/29 08:27:38;;;;;;;;;;;21.20;99.90;;;;;;4956296;28;19963;-43
2023/07/29 08:30:05;;;;;;;;;;;21.40;99.90;;;;;;4957632;28;20320;-43
2023/07/29 08:32:33;;;;;;;;;;;21.70;99.90;;;;;;4957863;28;20374;-43
2023/07/29 08:34:59;;;;;;;;;;;21.90;99.90;;;;;;4956141;28;20437;-43
2023/07/29 08:37:26;;;;;;;;;;;22.00;99.90;;;;;;4974104;28;20378;-43
2023/07/29 08:39:53;;;;;;;;;;;22.00;99.90;;;;;;4949524;29;19928;-43
2023/07/29 08:42:20;;;;;;;;;;;22.00;99.90;;;;;;4970639;28;20475;-44
2023/07/29 08:44:47;;;;;;;;;;;22.00;99.90;;;;;;4973455;28;19968;-44
2023/07/29 08:47:14;;;;;;;;;;;21.90;99.90;;;;;;4987149;28;19921;-43
2023/07/29 08:49:42;;;;;;;;;;;21.90;99.90;;;;;;4985729;28;19995;-43
2023/07/29 08:52:08;;;;;;;;;;;22.00;99.90;;;;;;4987918;28;20007;-43
2023/07/29 08:54:35;;;;;;;;;;;22.30;99.90;;;;;;4974150;28;19964;-44
2023/07/29 08:57:02;;;;;;;;;;;22.50;99.90;;;;;;4990248;28;20377;-43
2023/07/29 08:59:28;;;;;;;;;;;22.50;99.90;;;;;;4963952;28;19922;-43
2023/07/29 09:01:57;;;;;;;;;;;22.50;99.90;;;;;;4978795;28;19968;-44
2023/07/29 09:04:24;;;;;;;;;;;22.60;99.90;;;;;;4994328;28;19969;-43
2023/07/29 09:06:52;;;;;;;;;;;22.80;99.90;;;;;;4995984;28;20360;-43
2023/07/29 09:09:19;;;;;;;;;;;22.90;99.90;;;;;;4974466;28;20330;-43
2023/07/29 09:11:46;;;;;;;;;;;22.90;99.90;;;;;;4993947;28;19949;-43
2023/07/29 09:14:12;;;;;;;;;;;22.90;99.90;;;;;;4993891;28;19922;-43
2023/07/29 09:16:39;;;;;;;;;;;22.90;99.90;;;;;;4976082;28;19961;-43
2023/07/29 09:19:06;;;;;;;;;;;23.00;99.90;;;;;;4989326;28;20277;-44
2023/07/29 09:21:32;;;;;;;;;;;23.00;99.90;;;;;;4987999;28;19972;-43
2023/07/29 09:24:03;;;;;;;;;;;23.10;99.90;;;;;;4972427;28;20305;-43
2023/07/29 09:26:31;;;;;;;;;;;23.10;99.90;;;;;;4983792;28;19953;-43
2023/07/29 09:28:58;;;;;;;;;;;23.20;99.90;;;;;;4988440;28;20424;-44
2023/07/29 09:31:25;;;;;;;;;;;23.20;99.90;;;;;;4993047;28;20020;-44
2023/07/29 09:33:54;;;;;;;;;;;23.30;99.90;;;;;;4992975;28;20445;-43
2023/07/29 09:36:21;;;;;;;;;;;23.30;99.90;;;;;;4993066;28;19961;-43
2023/07/29 09:38:48;;;;;;;;;;;23.30;99.90;;;;;;4987168;28;20190;-43
2023/07/29 09:41:16;;;;;;;;;;;23.30;99.90;;;;;;4935197;29;20021;-43
2023/07/29 09:43:42;;;;;;;;;;;23.30;99.90;;;;;;4971850;28;19922;-43
2023/07/29 09:46:09;;;;;;;;;;;23.50;99.90;;;;;;4986697;28;20436;-42
2023/07/29 09:48:36;;;;;;;;;;;23.60;99.90;;;;;;4994464;28;19929;-43
2023/07/29 09:51:10;;;;;;;;;;;23.70;99.90;;;;;;4994175;28;20004;-43
2023/07/29 09:53:40;;;;;;;;;;;23.70;99.90;;;;;;4993860;28;19928;-43
2023/07/29 09:56:06;;;;;;;;;;;23.80;99.90;;;;;;4993490;28;20316;-43
2023/07/29 09:58:35;;;;;;;;;;;23.90;99.90;;;;;;4977737;28;19966;-43
2023/07/29 10:01:01;;;;;;;;;;;24.00;99.90;;;;;;4994738;28;19972;-43
2023/07/29 10:03:28;;;;;;;;;;;24.20;99.90;;;;;;4975635;28;19963;-44
2023/07/29 10:05:55;;;;;;;;;;;24.30;99.90;;;;;;4987528;28;20339;-44
2023/07/29 10:08:22;;;;;;;;;;;24.30;99.90;;;;;;4990251;28;19952;-43
2023/07/29 10:10:48;;;;;;;;;;;24.40;99.90;;;;;;4994250;28;19960;-43
2023/07/29 10:13:15;;;;;;;;;;;24.30;99.90;;;;;;4976348;28;19926;-43
2023/07/29 10:15:43;;;;;;;;;;;24.20;99.90;;;;;;4975609;28;20420;-43
2023/07/29 10:18:10;;;;;;;;;;;24.20;99.90;;;;;;4957629;28;20123;-43
2023/07/29 10:20:36;;;;;;;;;;;24.30;99.90;;;;;;4962648;28;19929;-43
2023/07/29 10:23:03;;;;;;;;;;;24.50;99.90;;;;;;4985733;28;19967;-43
2023/07/29 10:25:31;;;;;;;;;;;24.60;99.90;;;;;;4955882;29;20057;-43
2023/07/29 10:28:00;;;;;;;;;;;24.60;99.90;;;;;;4981112;28;19929;-43
2023/07/29 10:30:27;;;;;;;;;;;24.60;99.90;;;;;;4967750;28;19960;-44
2023/07/29 10:32:55;;;;;;;;;;;24.50;99.90;;;;;;4992491;28;19925;-43
2023/07/29 10:35:22;;;;;;;;;;;24.40;99.90;;;;;;4974950;28;19955;-42
2023/07/29 10:37:50;;;;;;;;;;;24.40;99.90;;;;;;4977051;28;19965;-43
2023/07/29 10:40:17;;;;;;;;;;;24.30;99.90;;;;;;4972246;28;20379;-44
2023/07/29 10:42:59;;;;;;;;;;;24.30;99.90;;;;;;4976846;28;19937;-44
2023/07/29 10:45:26;;;;;;;;;;;24.40;99.90;;;;;;4971942;28;20453;-43
2023/07/29 10:47:52;;;;;;;;;;;24.40;99.90;;;;;;4990510;28;19921;-44
2023/07/29 10:50:21;;;;;;;;;;;24.40;99.90;;;;;;4992827;28;19977;-43
2023/07/29 10:52:50;;;;;;;;;;;24.30;99.90;;;;;;4992053;28;19921;-42
2023/07/29 10:55:26;;;;;;;;;;;24.20;99.90;;;;;;4992071;28;19922;-44
2023/07/29 10:57:53;;;;;;;;;;;24.00;99.90;;;;;;4974653;28;20038;-43
2023/07/29 11:00:20;;;;;;;;;;;23.50;99.90;;;;;;4990358;28;20006;-44
2023/07/29 11:03:00;;;;;;;;;;;23.00;99.90;;;;;;4991759;28;19956;-43
2023/07/29 11:05:30;;;;;;;;;;;22.80;99.90;;;;;;4976823;28;20267;-43
2023/07/29 11:07:56;;;;;;;;;;;22.70;99.90;;;;;;4988650;28;19922;-44
2023/07/29 11:10:23;;;;;;;;;;;22.70;99.90;;;;;;4987164;28;20396;-43
2023/07/29 11:12:51;;;;;;;;;;;22.70;99.90;;;;;;4974792;28;19921;-42
2023/07/29 11:15:19;;;;;;;;;;;22.60;99.90;;;;;;4990636;28;20379;-43
2023/07/29 11:17:46;;;;;;;;;;;22.50;99.90;;;;;;4965984;28;19987;-43
2023/07/29 11:20:13;;;;;;;;;;;22.50;99.90;;;;;;4982874;28;19929;-43
2023/07/29 11:22:41;;;;;;;;;;;22.50;99.90;;;;;;4990222;28;19973;-42
2023/07/29 11:25:09;;;;;;;;;;;22.40;99.90;;;;;;4991495;28;19963;-42
2023/07/29 11:27:36;;;;;;;;;;;22.40;99.90;;;;;;4991506;28;19925;-43
2023/07/29 11:30:05;;;;;;;;;;;22.40;99.90;;;;;;4974355;28;20050;-42
2023/07/29 11:32:31;;;;;;;;;;;22.40;99.90;;;;;;4958698;28;19943;-42
2023/07/29 11:34:58;;;;;;;;;;;22.50;99.90;;;;;;4993104;28;19956;-42
2023/07/29 11:37:25;;;;;;;;;;;22.50;99.90;;;;;;4991052;28;19929;-43
2023/07/29 11:39:53;;;;;;;;;;;22.70;99.90;;;;;;4985772;28;19922;-43
2023/07/29 11:42:19;;;;;;;;;;;22.80;99.90;;;;;;4990904;28;20338;-44
2023/07/29 11:44:46;;;;;;;;;;;22.90;99.90;;;;;;4990991;28;20432;-43
2023/07/29 11:47:13;;;;;;;;;;;23.00;99.90;;;;;;4993069;28;20383;-43
2023/07/29 11:49:40;;;;;;;;;;;23.10;99.90;;;;;;4987543;28;19963;-43
2023/07/29 11:52:07;;;;;;;;;;;23.20;99.90;;;;;;4991283;28;20003;-43
2023/07/29 11:54:34;;;;;;;;;;;23.20;99.90;;;;;;4991304;28;20603;-43
2023/07/29 11:57:02;;;;;;;;;;;23.10;99.90;;;;;;4992901;28;19928;-43
2023/07/29 11:59:29;;;;;;;;;;;23.10;99.90;;;;;;4991152;28;20012;-43
2023/07/29 12:01:56;;;;;;;;;;;23.20;99.90;;;;;;4974284;28;19929;-43
2023/07/29 12:04:22;;;;;;;;;;;23.30;99.90;;;;;;4992905;28;19929;-43
2023/07/29 12:06:49;;;;;;;;;;;23.40;99.90;;;;;;4995057;28;19987;-43
2023/07/29 12:09:16;;;;;;;;;;;23.50;99.90;;;;;;4979837;28;19929;-43
2023/07/29 12:11:43;;;;;;;;;;;23.50;99.90;;;;;;4994751;28;19958;-44
2023/07/29 12:14:11;;;;;;;;;;;23.60;99.90;;;;;;4994809;28;19936;-43
2023/07/29 12:16:41;;;;;;;;;;;23.70;99.90;;;;;;4991886;28;19922;-43
2023/07/29 12:19:08;;;;;;;;;;;23.70;99.90;;;;;;4977393;28;20007;-42
2023/07/29 12:21:34;;;;;;;;;;;23.70;99.90;;;;;;4990970;28;19922;-42
2023/07/29 12:24:03;;;;;;;;;;;23.80;99.90;;;;;;4996575;28;19922;-43
2023/07/29 12:26:30;;;;;;;;;;;23.90;99.90;;;;;;4992417;28;19976;-42
2023/07/29 12:28:57;;;;;;;;;;;24.00;99.90;;;;;;4995989;28;19922;-44
2023/07/29 12:31:30;;;;;;;;;;;24.30;99.90;;;;;;4996722;28;19967;-43
2023/07/29 12:33:57;;;;;;;;;;;24.50;99.90;;;;;;4972721;28;19922;-43
2023/07/29 12:36:23;;;;;;;;;;;24.70;99.90;;;;;;4988669;28;20005;-43
2023/07/29 12:38:50;;;;;;;;;;;24.80;99.90;;;;;;4994406;28;19921;-43
2023/07/29 12:41:17;;;;;;;;;;;24.70;99.90;;;;;;4996127;28;19969;-42
2023/07/29 12:43:43;;;;;;;;;;;24.60;99.90;;;;;;4994051;28;20023;-43
2023/07/29 12:46:10;;;;;;;;;;;24.50;99.90;;;;;;4994443;28;19929;-42
2023/07/29 12:48:38;;;;;;;;;;;24.30;99.90;;;;;;4977003;28;19925;-41
2023/07/29 12:51:05;;;;;;;;;;;24.20;99.90;;;;;;4994633;28;19969;-43
2023/07/29 12:53:31;;;;;;;;;;;24.10;99.90;;;;;;4995965;28;19933;-43
2023/07/29 12:55:58;;;;;;;;;;;24.00;99.90;;;;;;4992878;28;20010;-43
2023/07/29 12:58:25;;;;;;;;;;;24.00;99.90;;;;;;4994066;28;19944;-43
2023/07/29 13:00:52;;;;;;;;;;;24.00;99.90;;;;;;4994653;28;19922;-43
2023/07/29 13:03:19;;;;;;;;;;;24.20;99.90;;;;;;4993960;28;20511;-42
2023/07/29 13:05:47;;;;;;;;;;;24.40;99.90;;;;;;4995986;28;19925;-43
2023/07/29 13:08:13;;;;;;;;;;;24.60;99.90;;;;;;4993674;28;20401;-44
2023/07/29 13:10:40;;;;;;;;;;;24.80;99.90;;;;;;4995538;28;19929;-42
2023/07/29 13:13:07;;;;;;;;;;;25.00;99.90;;;;;;4994291;28;20389;-43
2023/07/29 13:15:33;;;;;;;;;;;25.10;99.90;;;;;;4979793;28;19954;-43
2023/07/29 13:18:00;;;;;;;;;;;25.30;99.90;;;;;;4968985;28;19922;-42
2023/07/29 13:20:27;;;;;;;;;;;25.40;99.90;;;;;;4990913;28;19976;-43
2023/07/29 13:22:55;;;;;;;;;;;25.50;99.90;;;;;;4978346;28;19922;-43
2023/07/29 13:25:22;;;;;;;;;;;25.50;99.90;;;;;;4995407;28;19967;-43
2023/07/29 13:27:48;;;;;;;;;;;25.40;99.90;;;;;;4995496;28;20347;-43
2023/07/29 13:30:15;;;;;;;;;;;25.30;99.90;;;;;;4976515;28;19928;-43
2023/07/29 13:32:42;;;;;;;;;;;25.20;99.90;;;;;;4961920;28;19972;-43
2023/07/29 13:35:09;;;;;;;;;;;25.00;99.90;;;;;;4995528;28;19936;-42
2023/07/29 13:37:35;;;;;;;;;;;24.80;99.90;;;;;;4993293;28;19946;-42
2023/07/29 13:40:04;;;;;;;;;;;24.60;99.90;;;;;;4995398;28;20022;-42
2023/07/29 13:42:30;;;;;;;;;;;24.50;99.90;;;;;;4957497;28;19954;-43
2023/07/29 13:44:57;;;;;;;;;;;24.60;99.90;;;;;;4955115;29;20400;-42
2023/07/29 13:47:24;;;;;;;;;;;24.50;99.90;;;;;;4973858;28;19984;-43
2023/07/29 13:49:51;;;;;;;;;;;24.50;99.90;;;;;;4976066;28;19959;-43
2023/07/29 13:52:17;;;;;;;;;;;24.60;99.90;;;;;;4991139;28;19928;-43
2023/07/29 13:54:44;;;;;;;;;;;24.60;99.90;;;;;;4964489;28;19926;-43
2023/07/29 13:57:12;;;;;;;;;;;24.60;99.90;;;;;;4988348;28;19929;-42
2023/07/29 13:59:39;;;;;;;;;;;24.70;99.90;;;;;;4974066;28;19949;-43
2023/07/29 14:02:06;;;;;;;;;;;24.60;99.90;;;;;;4970639;28;19972;-43
2023/07/29 14:04:32;;;;;;;;;;;24.50;99.90;;;;;;4976282;28;19969;-42
2023/07/29 14:06:59;;;;;;;;;;;24.40;99.90;;;;;;4994578;28;20282;-42
2023/07/29 14:09:26;;;;;;;;;;;24.20;99.90;;;;;;4994061;28;19929;-43
2023/07/29 14:11:52;;;;;;;;;;;24.20;99.90;;;;;;4993424;28;19926;-43
2023/07/29 14:14:20;;;;;;;;;;;24.10;99.90;;;;;;4976517;28;19925;-43